createdAt,value
2018-06-05T00:00:45.579Z,85.64
2018-06-05T00:03:57.492Z,85.84
2018-06-05T00:07:02.280Z,86.56
2018-06-05T00:10:07.894Z,86.35
2018-06-05T00:13:11.764Z,86.38
2018-06-05T00:16:16.054Z,86.58
2018-06-05T00:19:21.573Z,87.03
2018-06-05T00:22:27.366Z,86.98
2018-06-05T00:25:31.245Z,87.31
2018-06-05T00:28:35.259Z,86.85
2018-06-05T00:31:39.510Z,88.09
2018-06-05T00:34:45.357Z,87.24
2018-06-05T00:37:49.025Z,87.16
2018-06-05T00:40:52.674Z,87.08
2018-06-05T00:43:57.288Z,86.86
2018-06-05T00:47:01.633Z,87.03
2018-06-05T00:50:05.557Z,87.65
2018-06-05T00:53:10.264Z,87.92
2018-06-05T00:56:15.030Z,87.94
2018-06-05T00:59:19.029Z,87.70
2018-06-05T01:02:24.691Z,87.74
2018-06-05T01:05:29.485Z,87.92
2018-06-05T01:08:33.719Z,88.59
2018-06-05T01:11:37.591Z,88.72
2018-06-05T01:14:41.695Z,89.65
2018-06-05T01:17:46.204Z,89.01
2018-06-05T01:20:49.833Z,89.52
2018-06-05T01:23:53.779Z,89.74
2018-06-05T01:26:57.609Z,90.01
2018-06-05T01:30:04.153Z,89.40
2018-06-05T01:33:09.118Z,88.87
2018-06-05T01:36:12.987Z,89.40
2018-06-05T01:39:16.852Z,89.46
2018-06-05T01:42:21.519Z,89.93
2018-06-05T01:45:26.124Z,90.10
2018-06-05T01:48:30.987Z,90.21
2018-06-05T01:51:35.996Z,91.12
2018-06-05T01:54:40.546Z,90.81
2018-06-05T01:57:45.143Z,91.08
2018-06-05T02:00:49.240Z,91.50
2018-06-05T02:03:55.603Z,91.37
2018-06-05T02:07:02.474Z,91.54
2018-06-05T02:10:08.060Z,91.64
2018-06-05T02:13:12.826Z,91.05
2018-06-05T02:16:16.533Z,90.82
2018-06-05T02:19:20.293Z,91.56
2018-06-05T02:22:24.829Z,91.29
2018-06-05T02:25:29.442Z,92.07
2018-06-05T02:28:33.344Z,91.71
2018-06-05T02:31:37.249Z,91.92
2018-06-05T02:34:41.756Z,92.25
2018-06-05T02:37:45.490Z,92.26
2018-06-05T02:40:53.384Z,92.16
2018-06-05T02:43:57.791Z,91.73
2018-06-05T02:47:02.405Z,92.35
2018-06-05T02:50:10.193Z,91.66
2018-06-05T02:53:14.973Z,92.01
2018-06-05T02:56:18.736Z,91.89
2018-06-05T02:59:23.679Z,92.84
2018-06-05T03:02:28.161Z,91.92
2018-06-05T03:05:31.715Z,92.70
2018-06-05T03:08:35.546Z,92.23
2018-06-05T03:11:40.752Z,93.04
2018-06-05T03:14:44.819Z,92.79
2018-06-05T03:17:51.695Z,91.82
2018-06-05T03:20:55.964Z,91.86
2018-06-05T03:24:02.815Z,92.15
2018-06-05T03:27:06.892Z,91.58
2018-06-05T03:30:10.724Z,91.93
2018-06-05T03:33:14.632Z,90.66
2018-06-05T03:36:18.253Z,91.19
2018-06-05T03:39:22.244Z,91.85
2018-06-05T03:42:25.852Z,92.07
2018-06-05T03:45:30.152Z,91.00
2018-06-05T03:48:35.746Z,90.15
2018-06-05T03:51:41.346Z,89.69
2018-06-05T03:54:45.025Z,90.04
2018-06-05T03:57:48.767Z,89.97
2018-06-05T04:00:52.427Z,89.17
2018-06-05T04:03:58.287Z,85.09
2018-06-05T04:07:02.536Z,80.30
2018-06-05T04:10:06.334Z,76.58
2018-06-05T04:13:12.415Z,73.08
2018-06-05T04:16:18.122Z,71.02
2018-06-05T04:19:21.879Z,68.15
2018-06-05T04:22:27.407Z,67.13
2018-06-05T04:25:32.225Z,65.10
2018-06-05T04:28:36.041Z,60.65
2018-06-05T04:31:43.641Z,64.25
2018-06-05T04:34:48.411Z,66.01
2018-06-05T04:37:52.853Z,62.23
2018-06-05T04:40:56.787Z,59.33
2018-06-05T04:44:02.570Z,57.02
2018-06-05T04:47:06.443Z,54.74
2018-06-05T04:50:12.350Z,54.41
2018-06-05T04:53:17.035Z,55.64
2018-06-05T04:56:21.856Z,56.42
2018-06-05T04:59:26.703Z,56.83
2018-06-05T05:02:30.994Z,55.06
2018-06-05T05:05:34.796Z,54.51
2018-06-05T05:08:39.515Z,56.07
2018-06-05T05:11:44.095Z,55.29
2018-06-05T05:14:54.325Z,54.50
2018-06-05T05:17:59.823Z,57.24
2018-06-05T05:21:06.083Z,55.32
2018-06-05T05:24:09.965Z,54.48
2018-06-05T05:27:13.858Z,52.59
2018-06-05T05:30:17.896Z,52.57
2018-06-05T05:33:22.615Z,58.85
2018-06-05T05:36:28.677Z,60.35
2018-06-05T05:39:32.684Z,62.17
2018-06-05T05:42:37.251Z,64.42
2018-06-05T05:45:45.107Z,64.35
2018-06-05T05:48:52.713Z,67.45
2018-06-05T05:51:56.702Z,70.54
2018-06-05T05:55:01.076Z,70.14
2018-06-05T05:58:05.846Z,71.66
2018-06-05T06:01:09.704Z,72.97
2018-06-05T06:04:16.249Z,74.37
2018-06-05T06:07:19.433Z,73.55
2018-06-05T06:10:22.786Z,73.58
2018-06-05T06:13:27.333Z,75.38
2018-06-05T06:16:33.055Z,75.24
2018-06-05T06:19:42.766Z,74.92
2018-06-05T06:22:48.264Z,74.11
2018-06-05T06:25:52.687Z,74.18
2018-06-05T06:29:01.198Z,74.54
2018-06-05T06:32:05.154Z,74.79
2018-06-05T06:35:09.261Z,73.71
2018-06-05T06:38:14.735Z,73.99
2018-06-05T06:41:24.560Z,73.47
2018-06-05T06:44:28.743Z,72.12
2018-06-05T06:47:33.073Z,69.23
2018-06-05T06:50:36.520Z,67.58
2018-06-05T06:53:40.397Z,66.31
2018-06-05T06:56:44.389Z,66.78
2018-06-05T06:59:49.042Z,67.10
2018-06-05T07:02:53.236Z,66.74
2018-06-05T07:05:58.177Z,66.82
2018-06-05T07:09:02.062Z,67.08
2018-06-05T07:12:06.584Z,66.91
2018-06-05T07:15:11.313Z,68.97
2018-06-05T07:18:15.204Z,68.50
2018-06-05T07:21:19.826Z,66.88
2018-06-05T07:24:23.426Z,66.18
2018-06-05T07:27:29.184Z,62.71
2018-06-05T07:30:36.135Z,54.43
2018-06-05T07:33:39.756Z,50.74
2018-06-05T07:36:43.253Z,48.30
2018-06-05T07:39:47.022Z,47.08
2018-06-05T07:42:50.783Z,45.59
2018-06-05T07:45:54.061Z,48.84
2018-06-05T07:48:58.460Z,48.16
2018-06-05T07:52:02.115Z,43.62
2018-06-05T07:55:05.953Z,41.05
2018-06-05T07:58:09.146Z,42.58
2018-06-05T08:01:12.230Z,43.64
2018-06-05T08:04:16.375Z,44.94
2018-06-05T08:07:19.526Z,48.25
2018-06-05T08:10:22.581Z,51.50
2018-06-05T08:13:29.465Z,54.42
2018-06-05T08:16:33.983Z,53.66
2018-06-05T08:19:38.249Z,52.28
2018-06-05T08:22:54.691Z,53.83
2018-06-05T08:26:01.253Z,57.51
2018-06-05T08:29:04.548Z,56.23
2018-06-05T08:32:16.859Z,55.41
2018-06-05T08:35:21.120Z,55.49
2018-06-05T08:38:25.297Z,56.24
2018-06-05T08:41:29.432Z,55.44
2018-06-05T08:44:33.421Z,58.20
2018-06-05T08:47:37.506Z,57.34
2018-06-05T08:50:42.590Z,58.20
2018-06-05T08:53:45.705Z,60.47
2018-06-05T08:56:48.905Z,59.00
2018-06-05T08:59:53.054Z,60.63
2018-06-05T09:02:59.513Z,60.88
2018-06-05T09:06:03.680Z,59.98
2018-06-05T09:09:08.990Z,57.11
2018-06-05T09:12:12.056Z,57.03
2018-06-05T09:15:15.244Z,56.26
2018-06-05T09:18:18.466Z,57.60
2018-06-05T09:21:22.922Z,56.94
2018-06-05T09:24:26.361Z,58.46
2018-06-05T09:27:29.891Z,56.95
2018-06-05T09:30:33.287Z,56.58
2018-06-05T09:33:37.383Z,55.37
2018-06-05T09:36:40.757Z,55.85
2018-06-05T09:39:44.917Z,57.64
2018-06-05T09:42:49.020Z,57.21
2018-06-05T09:45:52.262Z,56.62
2018-06-05T09:48:55.396Z,53.04
2018-06-05T09:51:58.482Z,50.88
2018-06-05T09:55:01.624Z,51.47
2018-06-05T09:58:05.243Z,49.67
2018-06-05T10:01:09.273Z,47.44
2018-06-05T10:04:12.408Z,48.82
2018-06-05T10:07:15.494Z,51.16
2018-06-05T10:10:19.601Z,53.86
2018-06-05T10:13:22.793Z,52.19
2018-06-05T10:16:26.925Z,50.19
2018-06-05T10:19:29.943Z,48.10
2018-06-05T10:22:36.846Z,49.89
2018-06-05T10:25:42.004Z,49.85
2018-06-05T10:28:47.138Z,49.57
2018-06-05T10:31:53.620Z,50.08
2018-06-05T10:34:58.687Z,51.24
2018-06-05T10:38:01.845Z,51.97
2018-06-05T10:41:05.072Z,51.37
2018-06-05T10:44:09.213Z,50.64
2018-06-05T10:47:12.496Z,51.30
2018-06-05T10:50:18.847Z,50.09
2018-06-05T10:53:26.379Z,50.34
2018-06-05T10:56:31.000Z,50.71
2018-06-05T10:59:34.867Z,47.82
2018-06-05T11:02:38.443Z,48.07
2018-06-05T11:05:42.031Z,46.39
2018-06-05T11:08:56.841Z,45.13
2018-06-05T11:12:01.572Z,46.93
2018-06-05T11:15:05.253Z,47.08
2018-06-05T11:18:08.436Z,45.86
2018-06-05T11:21:12.234Z,49.01
2018-06-05T11:24:19.112Z,47.19
2018-06-05T11:27:22.256Z,45.92
2018-06-05T11:30:31.645Z,45.16
2018-06-05T11:33:35.818Z,45.25
2018-06-05T11:36:39.469Z,42.18
2018-06-05T11:39:42.686Z,42.49
2018-06-05T11:42:47.656Z,43.40
2018-06-05T11:45:51.874Z,43.69
2018-06-05T11:48:55.971Z,44.43
2018-06-05T11:51:59.167Z,44.81
2018-06-05T11:55:02.396Z,43.68
2018-06-05T11:58:06.093Z,43.09
2018-06-05T12:01:09.627Z,44.18
2018-06-05T12:04:21.284Z,42.56
2018-06-05T12:07:24.461Z,41.47
2018-06-05T12:10:27.546Z,43.68
2018-06-05T12:13:30.969Z,43.37
2018-06-05T12:16:36.426Z,44.41
2018-06-05T12:19:40.102Z,43.88
2018-06-05T12:22:43.760Z,44.40
2018-06-05T12:25:46.867Z,43.68
2018-06-05T12:28:53.155Z,44.13
2018-06-05T12:31:56.328Z,44.81
2018-06-05T12:34:59.523Z,43.72
2018-06-05T12:38:02.665Z,41.90
2018-06-05T12:41:06.854Z,44.64
2018-06-05T12:44:11.174Z,43.90
2018-06-05T12:47:15.068Z,43.29
2018-06-05T12:50:19.569Z,41.78
2018-06-05T12:53:25.020Z,42.08
2018-06-05T12:56:29.240Z,41.90
2018-06-05T12:59:34.393Z,40.88
2018-06-05T13:02:37.910Z,41.67
2018-06-05T13:05:42.692Z,42.76
2018-06-05T13:08:48.083Z,40.00
2018-06-05T13:11:52.241Z,36.41
2018-06-05T13:14:56.529Z,39.38
2018-06-05T13:17:59.980Z,38.82
2018-06-05T13:21:04.682Z,41.27
2018-06-05T13:24:07.856Z,41.89
2018-06-05T13:27:10.935Z,40.88
2018-06-05T13:30:17.455Z,40.70
2018-06-05T13:33:22.038Z,39.89
2018-06-05T13:36:25.343Z,40.99
2018-06-05T13:39:28.839Z,40.65
2018-06-05T13:42:34.581Z,39.11
2018-06-05T13:45:39.135Z,39.13
2018-06-05T13:48:47.325Z,38.08
2018-06-05T13:51:51.991Z,37.30
2018-06-05T13:54:56.623Z,37.83
2018-06-05T13:58:01.146Z,34.79
2018-06-05T14:01:05.642Z,36.82
2018-06-05T14:04:10.971Z,34.63
2018-06-05T14:07:14.634Z,35.18
2018-06-05T14:10:19.251Z,35.27
2018-06-05T14:13:22.864Z,34.48
2018-06-05T14:16:27.456Z,34.81
2018-06-05T14:19:32.981Z,36.29
2018-06-05T14:22:37.282Z,34.20
2018-06-05T14:25:40.496Z,32.72
2018-06-05T14:28:43.810Z,31.41
2018-06-05T14:31:47.000Z,33.85
2018-06-05T14:34:50.095Z,38.59
2018-06-05T14:37:53.289Z,38.90
2018-06-05T14:40:56.342Z,38.78
2018-06-05T14:44:00.536Z,37.90
2018-06-05T14:47:05.668Z,35.36
2018-06-05T14:50:10.506Z,33.54
2018-06-05T14:53:14.997Z,35.07
2018-06-05T14:56:19.455Z,39.73
2018-06-05T14:59:22.944Z,39.10
2018-06-05T15:02:26.626Z,40.11
2018-06-05T15:05:30.137Z,36.61
2018-06-05T15:08:34.202Z,35.32
2018-06-05T15:11:38.173Z,34.58
2018-06-05T15:14:43.666Z,34.94
2018-06-05T15:17:47.291Z,33.39
2018-06-05T15:20:50.319Z,31.74
2018-06-05T15:23:57.218Z,33.64
2018-06-05T15:27:03.838Z,32.78
2018-06-05T15:30:08.158Z,32.15
2018-06-05T15:33:13.446Z,31.10
2018-06-05T15:36:23.303Z,30.66
2018-06-05T15:39:26.625Z,33.59
2018-06-05T15:42:30.170Z,36.82
2018-06-05T15:45:34.675Z,37.80
2018-06-05T15:48:39.019Z,37.79
2018-06-05T15:51:43.464Z,36.03
2018-06-05T15:54:48.046Z,36.81
2018-06-05T15:57:51.677Z,34.17
2018-06-05T16:00:55.410Z,35.06
2018-06-05T16:03:59.581Z,34.84
2018-06-05T16:07:03.362Z,32.83
2018-06-05T16:10:06.815Z,32.92
2018-06-05T16:13:11.554Z,34.10
2018-06-05T16:16:14.992Z,35.34
2018-06-05T16:19:18.425Z,35.86
2018-06-05T16:22:21.674Z,35.48
2018-06-05T16:25:24.827Z,32.12
2018-06-05T16:28:29.164Z,32.89
2018-06-05T16:31:34.400Z,31.46
2018-06-05T16:34:37.513Z,30.67
2018-06-05T16:37:40.742Z,30.23
2018-06-05T16:40:43.901Z,32.63
2018-06-05T16:43:47.093Z,32.91
2018-06-05T16:46:50.438Z,32.88
2018-06-05T16:49:53.473Z,33.01
2018-06-05T16:52:56.735Z,33.45
2018-06-05T16:55:59.951Z,33.62
2018-06-05T16:59:03.085Z,34.86
2018-06-05T17:02:06.196Z,34.03
2018-06-05T17:05:09.486Z,34.54
2018-06-05T17:08:13.149Z,37.53
2018-06-05T17:11:16.430Z,36.83
2018-06-05T17:14:20.677Z,41.82
2018-06-05T17:17:25.782Z,43.77
2018-06-05T17:20:29.045Z,39.47
2018-06-05T17:23:33.564Z,42.33
2018-06-05T17:26:36.608Z,41.26
2018-06-05T17:29:39.833Z,39.89
2018-06-05T17:32:42.931Z,41.65
2018-06-05T17:35:46.199Z,40.34
2018-06-05T17:38:50.437Z,40.95
2018-06-05T17:41:53.568Z,40.59
2018-06-05T17:44:56.736Z,37.37
2018-06-05T17:47:59.806Z,38.08
2018-06-05T17:51:03.001Z,38.53
2018-06-05T17:54:06.076Z,41.47
2018-06-05T17:57:09.183Z,44.32
2018-06-05T18:00:12.383Z,45.09
2018-06-05T18:03:15.562Z,47.55
2018-06-05T18:06:18.720Z,46.28
2018-06-05T18:09:21.881Z,46.00
2018-06-05T18:12:25.126Z,45.48
2018-06-05T18:15:28.309Z,46.40
2018-06-05T18:18:31.792Z,45.33
2018-06-05T18:21:34.983Z,46.04
2018-06-05T18:24:38.459Z,45.75
2018-06-05T18:27:42.145Z,46.98
2018-06-05T18:30:45.269Z,48.98
2018-06-05T18:33:48.472Z,49.24
2018-06-05T18:36:51.541Z,49.35
2018-06-05T18:39:54.969Z,50.47
2018-06-05T18:42:58.330Z,51.72
2018-06-05T18:46:06.310Z,52.86
2018-06-05T18:49:09.515Z,54.47
2018-06-05T18:52:12.757Z,56.78
2018-06-05T18:55:16.034Z,56.67
2018-06-05T18:58:18.987Z,57.41
2018-06-05T19:01:23.089Z,57.13
2018-06-05T19:04:32.382Z,58.93
2018-06-05T19:07:35.608Z,60.19
2018-06-05T19:10:39.306Z,60.81
2018-06-05T19:13:42.397Z,61.83
2018-06-05T19:16:46.830Z,62.12
2018-06-05T19:19:50.080Z,61.79
2018-06-05T19:22:53.116Z,61.75
2018-06-05T19:25:56.265Z,62.81
2018-06-05T19:28:59.359Z,63.37
2018-06-05T19:32:02.656Z,63.15
2018-06-05T19:35:05.891Z,63.71
2018-06-05T19:38:09.194Z,64.08
2018-06-05T19:41:12.425Z,64.94
2018-06-05T19:44:15.652Z,65.71
2018-06-05T19:47:18.829Z,66.08
2018-06-05T19:50:21.899Z,67.66
2018-06-05T19:53:24.925Z,67.90
2018-06-05T19:56:28.092Z,69.20
2018-06-05T19:59:31.116Z,70.09
2018-06-05T20:02:34.236Z,70.21
2018-06-05T20:05:37.552Z,70.51
2018-06-05T20:08:40.626Z,70.35
2018-06-05T20:11:43.720Z,71.54
2018-06-05T20:14:47.085Z,70.04
2018-06-05T20:17:53.808Z,69.81
2018-06-05T20:20:56.919Z,70.04
2018-06-05T20:24:00.621Z,68.94
2018-06-05T20:27:03.762Z,69.20
2018-06-05T20:30:06.895Z,70.11
2018-06-05T20:33:10.946Z,70.12
2018-06-05T20:36:15.019Z,70.41
2018-06-05T20:39:18.110Z,70.32
2018-06-05T20:42:21.321Z,70.50
2018-06-05T20:45:24.424Z,70.57
2018-06-05T20:48:28.494Z,71.31
2018-06-05T20:51:31.600Z,71.23
2018-06-05T20:54:34.660Z,71.52
2018-06-05T20:57:37.659Z,72.22
2018-06-05T21:00:41.821Z,73.82
2018-06-05T21:03:45.090Z,74.32
2018-06-05T21:06:49.231Z,75.33
2018-06-05T21:09:53.240Z,75.92
2018-06-05T21:12:56.271Z,76.75
2018-06-05T21:15:59.344Z,78.10
2018-06-05T21:19:03.411Z,78.39
2018-06-05T21:22:06.558Z,78.06
2018-06-05T21:25:09.829Z,78.82
2018-06-05T21:28:13.930Z,78.53
2018-06-05T21:31:17.030Z,78.74
2018-06-05T21:34:20.183Z,79.18
2018-06-05T21:37:23.364Z,78.91
2018-06-05T21:40:26.508Z,79.13
2018-06-05T21:43:29.520Z,78.85
2018-06-05T21:46:32.664Z,79.33
2018-06-05T21:49:35.816Z,79.92
2018-06-05T21:52:38.937Z,79.89
2018-06-05T21:55:42.311Z,80.05
2018-06-05T21:58:45.542Z,79.98
2018-06-05T22:01:49.215Z,79.73
2018-06-05T22:04:52.639Z,79.14
2018-06-05T22:07:56.302Z,77.47
2018-06-05T22:10:59.504Z,76.49
2018-06-05T22:14:04.623Z,75.63
2018-06-05T22:17:07.884Z,75.65
2018-06-05T22:20:11.140Z,75.83
2018-06-05T22:23:14.366Z,75.85
2018-06-05T22:26:17.688Z,76.68
2018-06-05T22:29:22.849Z,76.09
2018-06-05T22:32:26.117Z,77.49
2018-06-05T22:35:29.265Z,77.12
2018-06-05T22:38:32.420Z,77.63
2018-06-05T22:41:35.527Z,78.54
2018-06-05T22:44:38.684Z,78.91
2018-06-05T22:47:41.812Z,79.16
2018-06-05T22:50:45.999Z,79.51
2018-06-05T22:53:49.081Z,80.52
2018-06-05T22:56:52.393Z,81.35
2018-06-05T22:59:55.900Z,81.18
2018-06-05T23:02:59.024Z,82.77
2018-06-05T23:06:02.312Z,82.88
2018-06-05T23:09:06.696Z,83.31
2018-06-05T23:12:14.217Z,83.91
2018-06-05T23:15:17.741Z,83.76
2018-06-05T23:18:22.111Z,83.03
2018-06-05T23:21:26.324Z,82.10
2018-06-05T23:24:29.419Z,81.71
2018-06-05T23:27:32.591Z,82.16
2018-06-05T23:30:37.686Z,82.29
2018-06-05T23:33:44.516Z,82.55
2018-06-05T23:36:48.588Z,82.61
2018-06-05T23:39:52.619Z,83.52
2018-06-05T23:42:55.702Z,84.39
2018-06-05T23:45:59.701Z,84.57
2018-06-05T23:49:03.848Z,85.46
2018-06-05T23:52:06.945Z,85.45
2018-06-05T23:55:11.156Z,86.60
2018-06-05T23:58:15.275Z,86.63
